createdAt,value
2017-07-27T00:00:02.131Z,1001.84
2017-07-27T00:00:42.719Z,1001.86
2017-07-27T00:01:23.309Z,1001.81
2017-07-27T00:02:03.920Z,1001.83
2017-07-27T00:02:44.604Z,1001.82
2017-07-27T00:03:25.439Z,1001.79
2017-07-27T00:04:06.004Z,1001.84
2017-07-27T00:04:46.570Z,1001.83
2017-07-27T00:05:27.160Z,1001.82
2017-07-27T00:06:07.798Z,1001.83
2017-07-27T00:06:48.379Z,1001.84
2017-07-27T00:07:29.053Z,1001.85
2017-07-27T00:08:09.685Z,1001.84
2017-07-27T00:08:50.251Z,1001.8
2017-07-27T00:09:30.842Z,1001.83
2017-07-27T00:10:11.419Z,1001.8
2017-07-27T00:10:52.015Z,1001.85
2017-07-27T00:11:32.599Z,1001.79
2017-07-27T00:12:13.172Z,1001.81
2017-07-27T00:12:53.754Z,1001.82
2017-07-27T00:13:34.327Z,1001.83
2017-07-27T00:14:14.902Z,1001.8
2017-07-27T00:14:55.502Z,1001.84
2017-07-27T00:15:36.090Z,1001.81
2017-07-27T00:16:16.675Z,1001.78
2017-07-27T00:16:57.293Z,1001.79
2017-07-27T00:17:37.869Z,1001.82
2017-07-27T00:18:18.499Z,1001.79
2017-07-27T00:18:59.151Z,1001.75
2017-07-27T00:19:39.735Z,1001.77
2017-07-27T00:20:20.321Z,1001.73
2017-07-27T00:21:00.889Z,1001.8
2017-07-27T00:21:41.457Z,1001.75
2017-07-27T00:22:22.020Z,1001.76
2017-07-27T00:23:02.585Z,1001.77
2017-07-27T00:23:43.176Z,1001.74
2017-07-27T00:24:23.766Z,1001.78
2017-07-27T00:25:04.386Z,1001.78
2017-07-27T00:25:44.968Z,1001.78
2017-07-27T00:26:25.545Z,1001.76
2017-07-27T00:27:06.185Z,1001.71
2017-07-27T00:27:46.804Z,1001.77
2017-07-27T00:28:27.372Z,1001.79
2017-07-27T00:29:07.971Z,1001.83
2017-07-27T00:29:48.556Z,1001.79
2017-07-27T00:30:29.129Z,1001.8
2017-07-27T00:31:09.706Z,1001.8
2017-07-27T00:31:50.286Z,1001.77
2017-07-27T00:32:30.847Z,1001.74
2017-07-27T00:33:11.533Z,1001.77
2017-07-27T00:33:52.129Z,1001.77
2017-07-27T00:34:32.732Z,1001.75
2017-07-27T00:35:13.311Z,1001.78
2017-07-27T00:35:53.897Z,1001.75
2017-07-27T00:36:34.485Z,1001.82
2017-07-27T00:37:15.112Z,1001.78
2017-07-27T00:37:55.672Z,1001.8
2017-07-27T00:38:36.229Z,1001.79
2017-07-27T00:39:16.793Z,1001.8
2017-07-27T00:39:57.368Z,1001.82
2017-07-27T00:40:37.956Z,1001.83
2017-07-27T00:41:18.530Z,1001.79
2017-07-27T00:41:59.128Z,1001.78
2017-07-27T00:42:39.693Z,1001.8
2017-07-27T00:43:20.264Z,1001.8
2017-07-27T00:44:00.836Z,1001.79
2017-07-27T00:44:41.868Z,1001.78
2017-07-27T00:45:22.467Z,1001.79
2017-07-27T00:46:03.042Z,1001.77
2017-07-27T00:46:43.632Z,1001.77
2017-07-27T00:47:24.295Z,1001.81
2017-07-27T00:48:04.892Z,1001.76
2017-07-27T00:48:45.460Z,1001.79
2017-07-27T00:49:26.045Z,1001.77
2017-07-27T00:50:06.620Z,1001.76
2017-07-27T00:50:47.200Z,1001.74
2017-07-27T00:51:27.755Z,1001.76
2017-07-27T00:52:08.321Z,1001.75
2017-07-27T00:52:48.900Z,1001.72
2017-07-27T00:53:29.485Z,1001.75
2017-07-27T00:54:10.093Z,1001.75
2017-07-27T00:54:50.893Z,1001.74
2017-07-27T00:55:31.463Z,1001.73
2017-07-27T00:56:12.030Z,1001.7
2017-07-27T00:56:52.605Z,1001.69
2017-07-27T00:57:33.211Z,1001.68
2017-07-27T00:58:13.774Z,1001.64
2017-07-27T00:58:54.365Z,1001.71
2017-07-27T00:59:34.948Z,1001.69
2017-07-27T01:00:15.515Z,1001.68
2017-07-27T01:00:56.078Z,1001.67
2017-07-27T01:01:36.667Z,1001.7
2017-07-27T01:02:17.268Z,1001.7
2017-07-27T01:02:57.837Z,1001.69
2017-07-27T01:03:38.429Z,1001.74
2017-07-27T01:04:19.004Z,1001.71
2017-07-27T01:04:59.595Z,1001.73
2017-07-27T01:05:40.174Z,1001.71
2017-07-27T01:06:20.787Z,1001.68
2017-07-27T01:07:01.380Z,1001.69
2017-07-27T01:07:41.947Z,1001.66
2017-07-27T01:08:22.513Z,1001.67
2017-07-27T01:09:03.109Z,1001.7
2017-07-27T01:09:43.679Z,1001.65
2017-07-27T01:10:24.270Z,1001.69
2017-07-27T01:11:04.850Z,1001.62
2017-07-27T01:11:45.438Z,1001.67
2017-07-27T01:12:26.047Z,1001.63
2017-07-27T01:13:06.628Z,1001.66
2017-07-27T01:13:47.195Z,1001.66
2017-07-27T01:14:27.785Z,1001.65
2017-07-27T01:15:08.399Z,1001.67
2017-07-27T01:15:49.119Z,1001.66
2017-07-27T01:16:29.691Z,1001.63
2017-07-27T01:17:10.270Z,1001.61
2017-07-27T01:17:50.837Z,1001.63
2017-07-27T01:18:31.411Z,1001.65
2017-07-27T01:19:12.002Z,1001.64
2017-07-27T01:19:52.616Z,1001.69
2017-07-27T01:20:33.210Z,1001.72
2017-07-27T01:21:13.796Z,1001.73
2017-07-27T01:21:54.362Z,1001.68
2017-07-27T01:22:34.929Z,1001.7
2017-07-27T01:23:15.507Z,1001.77
2017-07-27T01:23:56.070Z,1001.72
2017-07-27T01:24:36.667Z,1001.73
2017-07-27T01:25:17.233Z,1001.72
2017-07-27T01:25:57.823Z,1001.72
2017-07-27T01:26:38.394Z,1001.7
2017-07-27T01:27:18.994Z,1001.7
2017-07-27T01:27:59.586Z,1001.69
2017-07-27T01:28:40.155Z,1001.69
2017-07-27T01:29:20.776Z,1001.71
2017-07-27T01:30:01.383Z,1001.74
2017-07-27T01:30:41.947Z,1001.69
2017-07-27T01:31:22.530Z,1001.67
2017-07-27T01:32:03.082Z,1001.7
2017-07-27T01:32:43.672Z,1001.69
2017-07-27T01:33:24.267Z,1001.63
2017-07-27T01:34:04.900Z,1001.67
2017-07-27T01:34:45.477Z,1001.62
2017-07-27T01:35:26.093Z,1001.66
2017-07-27T01:36:06.697Z,1001.64
2017-07-27T01:36:47.309Z,1001.66
2017-07-27T01:37:27.888Z,1001.63
2017-07-27T01:38:08.452Z,1001.59
2017-07-27T01:38:49.016Z,1001.64
2017-07-27T01:39:29.587Z,1001.64
2017-07-27T01:40:10.160Z,1001.56
2017-07-27T01:40:50.739Z,1001.58
2017-07-27T01:41:31.309Z,1001.54
2017-07-27T01:42:11.886Z,1001.59
2017-07-27T01:42:52.469Z,1001.54
2017-07-27T01:43:33.027Z,1001.55
2017-07-27T01:44:13.601Z,1001.45
2017-07-27T01:44:54.210Z,1001.48
2017-07-27T01:45:34.811Z,1001.44
2017-07-27T01:46:15.407Z,1001.5
2017-07-27T01:46:56.027Z,1001.48
2017-07-27T01:47:36.592Z,1001.46
2017-07-27T01:48:17.220Z,1001.49
2017-07-27T01:48:57.788Z,1001.48
2017-07-27T01:49:38.360Z,1001.48
2017-07-27T01:50:18.934Z,1001.48
2017-07-27T01:50:59.516Z,1001.51
2017-07-27T01:51:40.114Z,1001.51
2017-07-27T01:52:20.722Z,1001.48
2017-07-27T01:53:01.335Z,1001.52
2017-07-27T01:53:41.937Z,1001.46
2017-07-27T01:54:22.493Z,1001.48
2017-07-27T01:55:03.072Z,1001.46
2017-07-27T01:55:43.662Z,1001.47
2017-07-27T01:56:24.238Z,1001.45
2017-07-27T01:57:04.821Z,1001.47
2017-07-27T01:57:45.409Z,1001.49
2017-07-27T01:58:25.986Z,1001.46
2017-07-27T01:59:06.545Z,1001.51
2017-07-27T01:59:47.125Z,1001.49
2017-07-27T02:00:27.701Z,1001.44
2017-07-27T02:01:08.278Z,1001.42
2017-07-27T02:01:48.879Z,1001.38
2017-07-27T02:02:29.446Z,1001.41
2017-07-27T02:03:10.005Z,1001.4
2017-07-27T02:03:50.571Z,1001.43
2017-07-27T02:04:31.298Z,1001.41
2017-07-27T02:05:11.960Z,1001.39
2017-07-27T02:05:52.515Z,1001.39
2017-07-27T02:06:33.072Z,1001.41
2017-07-27T02:07:13.649Z,1001.39
2017-07-27T02:07:54.226Z,1001.33
2017-07-27T02:08:34.798Z,1001.34
2017-07-27T02:09:15.412Z,1001.34
2017-07-27T02:09:56.010Z,1001.32
2017-07-27T02:10:36.578Z,1001.34
2017-07-27T02:11:17.138Z,1001.39
2017-07-27T02:11:57.705Z,1001.34
2017-07-27T02:12:38.264Z,1001.35
2017-07-27T02:13:18.839Z,1001.37
2017-07-27T02:13:59.461Z,1001.39
2017-07-27T02:14:40.432Z,1001.39
2017-07-27T02:15:21.023Z,1001.42
2017-07-27T02:16:01.637Z,1001.37
2017-07-27T02:16:42.218Z,1001.41
2017-07-27T02:17:22.794Z,1001.41
2017-07-27T02:18:03.377Z,1001.4
2017-07-27T02:18:43.948Z,1001.41
2017-07-27T02:19:24.553Z,1001.41
2017-07-27T02:20:05.166Z,1001.38
2017-07-27T02:20:45.777Z,1001.39
2017-07-27T02:21:26.374Z,1001.38
2017-07-27T02:22:06.989Z,1001.4
2017-07-27T02:22:47.556Z,1001.38
2017-07-27T02:23:28.125Z,1001.36
2017-07-27T02:24:08.694Z,1001.41
2017-07-27T02:24:49.272Z,1001.37
2017-07-27T02:25:29.840Z,1001.44
2017-07-27T02:26:10.476Z,1001.4
2017-07-27T02:26:51.047Z,1001.41
2017-07-27T02:27:31.646Z,1001.42
2017-07-27T02:28:12.216Z,1001.43
2017-07-27T02:28:52.793Z,1001.39
2017-07-27T02:29:33.354Z,1001.4
2017-07-27T02:30:13.980Z,1001.38
2017-07-27T02:30:54.999Z,1001.37
2017-07-27T02:31:35.568Z,1001.38
2017-07-27T02:32:16.130Z,1001.4
2017-07-27T02:32:56.691Z,1001.38
2017-07-27T02:33:37.268Z,1001.38
2017-07-27T02:34:17.824Z,1001.38
2017-07-27T02:34:58.386Z,1001.4
2017-07-27T02:35:39.691Z,1001.4
2017-07-27T02:36:20.304Z,1001.38
2017-07-27T02:37:00.886Z,1001.41
2017-07-27T02:37:41.512Z,1001.38
2017-07-27T02:38:22.101Z,1001.45
2017-07-27T02:39:02.671Z,1001.41
2017-07-27T02:39:43.247Z,1001.41
2017-07-27T02:40:23.851Z,1001.4
2017-07-27T02:41:04.419Z,1001.42
2017-07-27T02:41:44.992Z,1001.42
2017-07-27T02:42:25.553Z,1001.4
2017-07-27T02:43:06.136Z,1001.42
2017-07-27T02:43:46.723Z,1001.38
2017-07-27T02:44:27.300Z,1001.41
2017-07-27T02:45:07.905Z,1001.43
2017-07-27T02:45:48.495Z,1001.41
2017-07-27T02:46:29.067Z,1001.41
2017-07-27T02:47:09.660Z,1001.43
2017-07-27T02:47:50.225Z,1001.43
2017-07-27T02:48:30.854Z,1001.4
2017-07-27T02:49:11.418Z,1001.42
2017-07-27T02:49:52.037Z,1001.42
2017-07-27T02:50:32.624Z,1001.38
2017-07-27T02:51:13.199Z,1001.4
2017-07-27T02:51:53.772Z,1001.39
2017-07-27T02:52:34.328Z,1001.39
2017-07-27T02:53:14.904Z,1001.43
2017-07-27T02:53:55.474Z,1001.39
2017-07-27T02:54:36.169Z,1001.42
2017-07-27T02:55:16.771Z,1001.45
2017-07-27T02:55:57.352Z,1001.45
2017-07-27T02:56:37.912Z,1001.48
2017-07-27T02:57:18.515Z,1001.48
2017-07-27T02:57:59.079Z,1001.46
2017-07-27T02:58:39.687Z,1001.47
2017-07-27T02:59:20.245Z,1001.47
2017-07-27T03:00:00.836Z,1001.43
2017-07-27T03:00:41.437Z,1001.44
2017-07-27T03:01:22.016Z,1001.45
2017-07-27T03:02:02.601Z,1001.46
2017-07-27T03:02:43.169Z,1001.48
2017-07-27T03:03:23.736Z,1001.49
2017-07-27T03:04:04.308Z,1001.42
2017-07-27T03:04:44.887Z,1001.46
2017-07-27T03:05:25.452Z,1001.42
2017-07-27T03:06:06.016Z,1001.5
2017-07-27T03:06:46.589Z,1001.46
2017-07-27T03:07:27.154Z,1001.47
2017-07-27T03:08:07.759Z,1001.46
2017-07-27T03:08:48.340Z,1001.47
2017-07-27T03:09:28.907Z,1001.48
2017-07-27T03:10:09.500Z,1001.55
2017-07-27T03:10:50.112Z,1001.5
2017-07-27T03:11:30.705Z,1001.51
2017-07-27T03:12:11.339Z,1001.52
2017-07-27T03:12:51.902Z,1001.51
2017-07-27T03:13:32.484Z,1001.5
2017-07-27T03:14:13.053Z,1001.47
2017-07-27T03:14:53.619Z,1001.53
2017-07-27T03:15:34.193Z,1001.5
2017-07-27T03:16:14.757Z,1001.52
2017-07-27T03:16:55.336Z,1001.51
2017-07-27T03:17:35.992Z,1001.55
2017-07-27T03:18:16.581Z,1001.52
2017-07-27T03:18:57.199Z,1001.5
2017-07-27T03:19:37.783Z,1001.5
2017-07-27T03:20:18.364Z,1001.5
2017-07-27T03:20:59.041Z,1001.54
2017-07-27T03:21:39.605Z,1001.5
2017-07-27T03:22:20.186Z,1001.51
2017-07-27T03:23:00.740Z,1001.52
2017-07-27T03:23:41.337Z,1001.48
2017-07-27T03:24:21.906Z,1001.51
2017-07-27T03:25:02.490Z,1001.51
2017-07-27T03:25:43.165Z,1001.49
2017-07-27T03:26:23.731Z,1001.49
2017-07-27T03:27:04.335Z,1001.49
2017-07-27T03:27:44.935Z,1001.51
2017-07-27T03:28:25.524Z,1001.53
2017-07-27T03:29:06.106Z,1001.53
2017-07-27T03:29:46.687Z,1001.54
2017-07-27T03:30:27.258Z,1001.57
2017-07-27T03:31:07.858Z,1001.55
2017-07-27T03:31:48.444Z,1001.56
2017-07-27T03:32:29.060Z,1001.53
2017-07-27T03:33:09.643Z,1001.56
2017-07-27T03:33:50.241Z,1001.56
2017-07-27T03:34:30.811Z,1001.59
2017-07-27T03:35:11.368Z,1001.63
2017-07-27T03:35:51.951Z,1001.61
2017-07-27T03:36:32.522Z,1001.67
2017-07-27T03:37:13.138Z,1001.65
2017-07-27T03:37:53.733Z,1001.65
2017-07-27T03:38:34.421Z,1001.61
2017-07-27T03:39:15.010Z,1001.63
2017-07-27T03:39:55.586Z,1001.64
2017-07-27T03:40:36.164Z,1001.63
2017-07-27T03:41:16.747Z,1001.67
2017-07-27T03:41:57.325Z,1001.67
2017-07-27T03:42:37.914Z,1001.65
2017-07-27T03:43:18.483Z,1001.65
2017-07-27T03:43:59.084Z,1001.62
2017-07-27T03:44:39.669Z,1001.65
2017-07-27T03:45:20.258Z,1001.65
2017-07-27T03:46:00.865Z,1001.62
2017-07-27T03:46:41.431Z,1001.64
2017-07-27T03:47:22.002Z,1001.65
2017-07-27T03:48:02.603Z,1001.66
2017-07-27T03:48:43.182Z,1001.61
2017-07-27T03:49:23.761Z,1001.61
2017-07-27T03:50:04.324Z,1001.62
2017-07-27T03:50:44.911Z,1001.6
2017-07-27T03:51:25.481Z,1001.62
2017-07-27T03:52:06.039Z,1001.61
2017-07-27T03:52:46.655Z,1001.63
2017-07-27T03:53:27.272Z,1001.61
2017-07-27T03:54:08.070Z,1001.63
2017-07-27T03:54:49.182Z,1001.64
2017-07-27T03:55:29.786Z,1001.63
2017-07-27T03:56:10.345Z,1001.62
2017-07-27T03:56:50.935Z,1001.6
2017-07-27T03:57:31.519Z,1001.64
2017-07-27T03:58:12.099Z,1001.64
2017-07-27T03:58:52.679Z,1001.62
2017-07-27T03:59:33.259Z,1001.63
2017-07-27T04:00:13.828Z,1001.61
2017-07-27T04:00:54.401Z,1001.61
2017-07-27T04:01:35.020Z,1001.6
2017-07-27T04:02:15.596Z,1001.6
2017-07-27T04:02:56.185Z,1001.61
2017-07-27T04:03:36.805Z,1001.64
2017-07-27T04:04:17.417Z,1001.64
2017-07-27T04:04:57.980Z,1001.64
2017-07-27T04:05:38.641Z,1001.63
2017-07-27T04:06:19.272Z,1001.62
2017-07-27T04:06:59.842Z,1001.64
2017-07-27T04:07:40.416Z,1001.58
2017-07-27T04:08:20.977Z,1001.6
2017-07-27T04:09:01.539Z,1001.59
2017-07-27T04:09:42.112Z,1001.61
2017-07-27T04:10:22.682Z,1001.62
2017-07-27T04:11:03.272Z,1001.56
2017-07-27T04:11:43.857Z,1001.59
2017-07-27T04:12:24.481Z,1001.6
2017-07-27T04:13:05.049Z,1001.61
2017-07-27T04:13:45.624Z,1001.64
2017-07-27T04:14:26.183Z,1001.66
2017-07-27T04:15:06.753Z,1001.66
2017-07-27T04:15:47.316Z,1001.65
2017-07-27T04:16:27.890Z,1001.65
2017-07-27T04:17:08.460Z,1001.63
2017-07-27T04:17:49.023Z,1001.67
2017-07-27T04:18:29.595Z,1001.67
2017-07-27T04:19:10.163Z,1001.67
2017-07-27T04:19:50.740Z,1001.71
2017-07-27T04:20:31.304Z,1001.73
2017-07-27T04:21:11.876Z,1001.69
2017-07-27T04:21:52.652Z,1001.7
2017-07-27T04:22:33.209Z,1001.72
2017-07-27T04:23:13.972Z,1001.72
2017-07-27T04:23:54.557Z,1001.69
2017-07-27T04:24:35.152Z,1001.68
2017-07-27T04:25:15.713Z,1001.68
2017-07-27T04:25:56.296Z,1001.71
2017-07-27T04:26:36.866Z,1001.66
2017-07-27T04:27:17.439Z,1001.63
2017-07-27T04:27:58.024Z,1001.65
2017-07-27T04:28:38.690Z,1001.66
2017-07-27T04:29:19.277Z,1001.67
2017-07-27T04:29:59.932Z,1001.67
2017-07-27T04:30:40.497Z,1001.7
2017-07-27T04:31:21.098Z,1001.68
2017-07-27T04:32:01.661Z,1001.68
2017-07-27T04:32:42.244Z,1001.72
2017-07-27T04:33:22.814Z,1001.74
2017-07-27T04:34:03.456Z,1001.75
2017-07-27T04:34:44.081Z,1001.72
2017-07-27T04:35:24.676Z,1001.77
2017-07-27T04:36:05.286Z,1001.77
2017-07-27T04:36:45.917Z,1001.76
2017-07-27T04:37:26.513Z,1001.77
2017-07-27T04:38:07.103Z,1001.78
2017-07-27T04:38:47.690Z,1001.78
2017-07-27T04:39:28.308Z,1001.76
2017-07-27T04:40:08.900Z,1001.73
2017-07-27T04:40:49.461Z,1001.73
2017-07-27T04:41:30.045Z,1001.74
2017-07-27T04:42:10.669Z,1001.73
2017-07-27T04:42:51.259Z,1001.79
2017-07-27T04:43:31.843Z,1001.79
2017-07-27T04:44:12.496Z,1001.79
2017-07-27T04:44:53.153Z,1001.8
2017-07-27T04:45:33.730Z,1001.8
2017-07-27T04:46:14.332Z,1001.82
2017-07-27T04:46:55.095Z,1001.79
2017-07-27T04:47:35.692Z,1001.82
2017-07-27T04:48:16.252Z,1001.78
2017-07-27T04:48:56.848Z,1001.79
2017-07-27T04:49:37.445Z,1001.82
2017-07-27T04:50:18.041Z,1001.75
2017-07-27T04:50:58.666Z,1001.8
2017-07-27T04:51:39.257Z,1001.79
2017-07-27T04:52:19.865Z,1001.79
2017-07-27T04:53:00.448Z,1001.77
2017-07-27T04:53:41.048Z,1001.79
2017-07-27T04:54:21.618Z,1001.79
2017-07-27T04:55:02.238Z,1001.8
2017-07-27T04:55:42.823Z,1001.79
2017-07-27T04:56:23.402Z,1001.78
2017-07-27T04:57:03.969Z,1001.74
2017-07-27T04:57:44.532Z,1001.73
2017-07-27T04:58:25.116Z,1001.75
2017-07-27T04:59:05.710Z,1001.74
2017-07-27T04:59:46.280Z,1001.73
2017-07-27T05:00:26.908Z,1001.75
2017-07-27T05:01:07.516Z,1001.76
2017-07-27T05:01:48.073Z,1001.79
2017-07-27T05:02:28.665Z,1001.78
2017-07-27T05:03:09.245Z,1001.78
2017-07-27T05:03:49.849Z,1001.85
2017-07-27T05:04:30.428Z,1001.83
2017-07-27T05:05:11.017Z,1001.81
2017-07-27T05:05:51.585Z,1001.81
2017-07-27T05:06:32.168Z,1001.75
2017-07-27T05:07:12.731Z,1001.8
2017-07-27T05:07:53.330Z,1001.78
2017-07-27T05:08:33.891Z,1001.83
2017-07-27T05:09:14.470Z,1001.84
2017-07-27T05:09:55.051Z,1001.85
2017-07-27T05:10:35.736Z,1001.83
2017-07-27T05:11:16.318Z,1001.86
2017-07-27T05:11:56.919Z,1001.86
2017-07-27T05:12:37.503Z,1001.82
2017-07-27T05:13:18.069Z,1001.87
2017-07-27T05:13:58.651Z,1001.82
2017-07-27T05:14:39.253Z,1001.79
2017-07-27T05:15:19.822Z,1001.8
2017-07-27T05:16:00.422Z,1001.77
2017-07-27T05:16:40.998Z,1001.76
2017-07-27T05:17:21.598Z,1001.81
2017-07-27T05:18:02.180Z,1001.81
2017-07-27T05:18:42.758Z,1001.82
2017-07-27T05:19:23.323Z,1001.76
2017-07-27T05:20:03.903Z,1001.81
2017-07-27T05:20:44.469Z,1001.78
2017-07-27T05:21:25.062Z,1001.75
2017-07-27T05:22:05.653Z,1001.76
2017-07-27T05:22:46.322Z,1001.78
2017-07-27T05:23:26.898Z,1001.8
2017-07-27T05:24:07.466Z,1001.79
2017-07-27T05:24:48.128Z,1001.79
2017-07-27T05:25:28.748Z,1001.77
2017-07-27T05:26:09.341Z,1001.79
2017-07-27T05:26:49.910Z,1001.76
2017-07-27T05:27:30.500Z,1001.77
2017-07-27T05:28:11.089Z,1001.79
2017-07-27T05:28:51.673Z,1001.8
2017-07-27T05:29:32.245Z,1001.8
2017-07-27T05:30:12.826Z,1001.8
2017-07-27T05:30:53.394Z,1001.79
2017-07-27T05:31:33.968Z,1001.76
2017-07-27T05:32:14.553Z,1001.74
2017-07-27T05:32:58.471Z,1001.77
2017-07-27T05:33:38.191Z,1001.76
2017-07-27T05:34:18.787Z,1001.81
2017-07-27T05:34:59.363Z,1001.77
2017-07-27T05:35:39.978Z,1001.81
2017-07-27T05:36:20.588Z,1001.8
2017-07-27T05:37:01.151Z,1001.79
2017-07-27T05:37:41.720Z,1001.78
2017-07-27T05:38:22.295Z,1001.79
2017-07-27T05:39:02.869Z,1001.78
2017-07-27T05:39:43.452Z,1001.82
2017-07-27T05:40:24.018Z,1001.81
2017-07-27T05:41:04.591Z,1001.79
2017-07-27T05:41:45.169Z,1001.8
2017-07-27T05:42:25.757Z,1001.76
2017-07-27T05:43:06.345Z,1001.86
2017-07-27T05:43:46.938Z,1001.89
2017-07-27T05:44:27.549Z,1002.08
2017-07-27T05:45:08.117Z,1002.08
2017-07-27T05:45:48.697Z,1002.14
2017-07-27T05:46:29.275Z,1002.25
2017-07-27T05:47:09.870Z,1002.26
2017-07-27T05:47:50.440Z,1002.32
2017-07-27T05:48:31.048Z,1002.31
2017-07-27T05:49:11.639Z,1002.35
2017-07-27T05:49:52.218Z,1002.35
2017-07-27T05:50:32.781Z,1002.43
2017-07-27T05:51:13.387Z,1002.43
2017-07-27T05:51:53.970Z,1002.45
2017-07-27T05:52:34.626Z,1002.43
2017-07-27T05:53:15.191Z,1002.44
2017-07-27T05:53:55.880Z,1002.43
2017-07-27T05:54:36.490Z,1002.48
2017-07-27T05:55:17.064Z,1002.53
2017-07-27T05:55:57.650Z,1002.52
2017-07-27T05:56:38.258Z,1002.53
2017-07-27T05:57:18.847Z,1002.48
2017-07-27T05:57:59.438Z,1002.4
2017-07-27T05:58:40.044Z,1002.48
2017-07-27T05:59:20.698Z,1002.5
2017-07-27T06:00:01.228Z,1002.56
2017-07-27T06:00:41.805Z,1002.61
2017-07-27T06:01:22.413Z,1002.64
2017-07-27T06:02:03.042Z,1002.64
2017-07-27T06:02:43.611Z,1002.72
2017-07-27T06:03:24.190Z,1002.78
2017-07-27T06:04:04.784Z,1002.84
2017-07-27T06:04:45.353Z,1002.78
2017-07-27T06:05:25.940Z,1002.4
2017-07-27T06:06:06.519Z,1002.65
2017-07-27T06:06:47.133Z,1002.9
2017-07-27T06:07:27.711Z,1003.02
2017-07-27T06:08:08.311Z,1003.1
2017-07-27T06:08:48.901Z,1003.02
2017-07-27T06:09:29.506Z,1002.8
2017-07-27T06:10:10.091Z,1003.16
2017-07-27T06:10:50.689Z,1002.95
2017-07-27T06:11:31.269Z,1002.45
2017-07-27T06:12:11.844Z,1002.77
2017-07-27T06:12:52.430Z,1002.28
2017-07-27T06:13:32.993Z,1002.57
2017-07-27T06:14:13.564Z,1002.93
2017-07-27T06:14:54.166Z,1003.31
2017-07-27T06:15:34.742Z,1002.76
2017-07-27T06:16:15.325Z,1002.41
2017-07-27T06:16:55.931Z,1003.33
2017-07-27T06:17:36.558Z,1002.69
2017-07-27T06:18:17.169Z,1003.2
2017-07-27T06:18:57.736Z,1003.02
2017-07-27T06:19:38.313Z,1003.51
2017-07-27T06:20:18.895Z,1002.81
2017-07-27T06:20:59.474Z,1002.96
2017-07-27T06:21:40.050Z,1002.99
2017-07-27T06:22:20.618Z,1002.62
2017-07-27T06:23:01.232Z,1002.39
2017-07-27T06:23:41.810Z,1002.29
2017-07-27T06:24:22.396Z,1002.29
2017-07-27T06:25:02.973Z,1002.32
2017-07-27T06:25:43.608Z,1002.3
2017-07-27T06:26:24.183Z,1002.29
2017-07-27T06:27:04.749Z,1002.3
2017-07-27T06:27:45.338Z,1002.28
2017-07-27T06:28:25.912Z,1002.27
2017-07-27T06:29:06.516Z,1002.24
2017-07-27T06:29:47.139Z,1002.33
2017-07-27T06:30:27.736Z,1002.32
2017-07-27T06:31:08.329Z,1002.25
2017-07-27T06:31:48.984Z,1002.27
2017-07-27T06:32:29.560Z,1002.36
2017-07-27T06:33:10.186Z,1002.5
2017-07-27T06:33:50.762Z,1002.95
2017-07-27T06:34:31.329Z,1003.62
2017-07-27T06:35:11.921Z,1003.37
2017-07-27T06:35:52.519Z,1003.23
2017-07-27T06:36:33.183Z,1003.25
2017-07-27T06:37:13.777Z,1002.79
2017-07-27T06:37:54.360Z,1002.54
2017-07-27T06:38:34.939Z,1002.43
2017-07-27T06:39:15.524Z,1002.47
2017-07-27T06:39:56.102Z,1002.96
2017-07-27T06:40:36.680Z,1002.82
2017-07-27T06:41:17.277Z,1002.66
2017-07-27T06:41:57.882Z,1002.54
2017-07-27T06:42:38.469Z,1002.44
2017-07-27T06:43:19.061Z,1002.41
2017-07-27T06:43:59.668Z,1002.37
2017-07-27T06:44:40.248Z,1002.42
2017-07-27T06:45:20.854Z,1002.37
2017-07-27T06:46:01.426Z,1002.31
2017-07-27T06:46:42.004Z,1002.3
2017-07-27T06:47:22.591Z,1002.36
2017-07-27T06:48:03.201Z,1002.33
2017-07-27T06:48:43.803Z,1002.35
2017-07-27T06:49:24.360Z,1002.34
2017-07-27T06:50:04.939Z,1002.28
2017-07-27T06:50:45.516Z,1002.25
2017-07-27T06:51:26.136Z,1002.3
2017-07-27T06:52:06.725Z,1002.29
2017-07-27T06:52:47.302Z,1002.24
2017-07-27T06:53:27.873Z,1002.22
2017-07-27T06:54:08.446Z,1002.25
2017-07-27T06:54:49.025Z,1002.27
2017-07-27T06:55:29.627Z,1002.23
2017-07-27T06:56:10.202Z,1002.27
2017-07-27T06:56:50.793Z,1002.36
2017-07-27T06:57:31.375Z,1002.37
2017-07-27T06:58:11.967Z,1002.32
2017-07-27T06:58:52.518Z,1002.3
2017-07-27T06:59:33.141Z,1002.36
2017-07-27T07:00:13.728Z,1002.32
2017-07-27T07:00:54.324Z,1002.34
2017-07-27T07:01:34.918Z,1002.3
2017-07-27T07:02:15.556Z,1002.18
2017-07-27T07:02:56.200Z,1002.21
2017-07-27T07:03:36.808Z,1002.25
2017-07-27T07:04:17.391Z,1002.25
2017-07-27T07:04:57.996Z,1002.27
2017-07-27T07:05:38.579Z,1002.21
2017-07-27T07:06:19.174Z,1002.2
2017-07-27T07:06:59.749Z,1002.27
2017-07-27T07:07:40.311Z,1002.21
2017-07-27T07:08:20.890Z,1002.25
2017-07-27T07:09:01.530Z,1002.32
2017-07-27T07:09:42.125Z,1002.4
2017-07-27T07:10:22.719Z,1002.31
2017-07-27T07:11:03.299Z,1002.27
2017-07-27T07:11:43.896Z,1002.26
2017-07-27T07:12:24.475Z,1002.28
2017-07-27T07:13:05.093Z,1002.28
2017-07-27T07:13:45.675Z,1002.27
2017-07-27T07:14:26.278Z,1002.25
2017-07-27T07:15:06.852Z,1002.25
2017-07-27T07:15:47.606Z,1002.25
2017-07-27T07:16:28.294Z,1002.24
2017-07-27T07:17:08.905Z,1002.24
2017-07-27T07:17:49.594Z,1002.21
2017-07-27T07:18:30.171Z,1002.23
2017-07-27T07:19:10.750Z,1002.23
2017-07-27T07:19:51.338Z,1002.22
2017-07-27T07:20:31.917Z,1002.22
2017-07-27T07:21:12.503Z,1002.19
2017-07-27T07:21:53.117Z,1002.2
2017-07-27T07:22:33.745Z,1002.2
2017-07-27T07:23:14.345Z,1002.18
2017-07-27T07:23:54.945Z,1002.2
2017-07-27T07:24:35.525Z,1002.17
2017-07-27T07:25:16.123Z,1002.2
2017-07-27T07:25:56.701Z,1002.18
2017-07-27T07:26:37.344Z,1002.17
2017-07-27T07:27:17.931Z,1002.22
2017-07-27T07:27:58.519Z,1002.22
2017-07-27T07:28:39.113Z,1002.21
2017-07-27T07:29:19.699Z,1002.24
2017-07-27T07:30:00.302Z,1002.22
2017-07-27T07:30:40.898Z,1002.21
2017-07-27T07:31:21.621Z,1002.21
2017-07-27T07:32:02.264Z,1002.23
2017-07-27T07:32:42.848Z,1002.25
2017-07-27T07:33:23.459Z,1002.26
2017-07-27T07:34:04.037Z,1002.3
2017-07-27T07:34:44.608Z,1002.36
2017-07-27T07:35:25.212Z,1002.38
2017-07-27T07:36:05.843Z,1002.44
2017-07-27T07:36:46.424Z,1002.39
2017-07-27T07:37:27.023Z,1002.4
2017-07-27T07:38:07.624Z,1002.42
2017-07-27T07:38:48.231Z,1002.44
2017-07-27T07:39:28.833Z,1002.41
2017-07-27T07:40:09.434Z,1002.41
2017-07-27T07:40:50.031Z,1002.43
2017-07-27T07:41:30.616Z,1002.42
2017-07-27T07:42:11.230Z,1002.43
2017-07-27T07:42:51.797Z,1002.42
2017-07-27T07:43:32.388Z,1002.43
2017-07-27T07:44:12.990Z,1002.41
2017-07-27T07:44:53.554Z,1002.42
2017-07-27T07:45:34.141Z,1002.45
2017-07-27T07:46:14.739Z,1002.44
2017-07-27T07:46:55.306Z,1002.42
2017-07-27T07:47:35.896Z,1002.42
2017-07-27T07:48:16.481Z,1002.4
2017-07-27T07:48:57.061Z,1002.42
2017-07-27T07:49:37.645Z,1002.41
2017-07-27T07:50:18.247Z,1002.4
2017-07-27T07:50:58.835Z,1002.4
2017-07-27T07:51:39.410Z,1002.34
2017-07-27T07:52:20.013Z,1002.37
2017-07-27T07:53:00.594Z,1002.39
2017-07-27T07:53:41.216Z,1002.39
2017-07-27T07:54:21.860Z,1002.36
2017-07-27T07:55:02.454Z,1002.38
2017-07-27T07:55:43.070Z,1002.36
2017-07-27T07:56:23.666Z,1002.33
2017-07-27T07:57:04.269Z,1002.35
2017-07-27T07:57:44.991Z,1002.35
2017-07-27T07:58:25.800Z,1002.33
2017-07-27T07:59:06.441Z,1002.33
2017-07-27T07:59:47.027Z,1002.29
2017-07-27T08:00:27.592Z,1002.3
2017-07-27T08:01:08.172Z,1002.28
2017-07-27T08:01:48.787Z,1002.28
2017-07-27T08:02:29.368Z,1002.27
2017-07-27T08:03:09.967Z,1002.25
2017-07-27T08:03:50.560Z,1002.27
2017-07-27T08:04:31.153Z,1002.27
2017-07-27T08:05:11.739Z,1002.24
2017-07-27T08:05:52.326Z,1002.29
2017-07-27T08:06:32.922Z,1002.3
2017-07-27T08:07:13.507Z,1002.27
2017-07-27T08:07:54.099Z,1002.3
2017-07-27T08:08:34.687Z,1002.25
2017-07-27T08:09:15.255Z,1002.25
2017-07-27T08:09:55.840Z,1002.25
2017-07-27T08:10:36.417Z,1002.24
2017-07-27T08:11:17.008Z,1002.22
2017-07-27T08:11:57.591Z,1002.23
2017-07-27T08:12:38.176Z,1002.24